Time;durP1;ratioP1;P1;durP2;ratioP2;P2;SDS_P1;SDS_P2;PMS_P1;PMS_P2;Temp;Humidity;BMP_temperature;BMP_pressure;BME280_temperature;BME280_humidity;BME280_pressure;Samples;Min_cycle;Max_cycle;Signal;HPM_P1;HPM_P2
2024/02/03 00:00:37;;;;;;;47.10;36.33;;;;;9.30;102327.00;;;;10397423;28;20240;-83
2024/02/03 00:05:40;;;;;;;38.57;25.13;;;;;9.30;102319.00;;;;10413550;28;20256;-83
2024/02/03 00:10:41;;;;;;;20.30;15.63;;;;;9.30;102316.00;;;;10404058;28;21877;-83
2024/02/03 00:15:42;;;;;;;13.10;8.93;;;;;9.30;102316.00;;;;10399744;28;20314;-83
2024/02/03 00:20:43;;;;;;;9.77;7.60;;;;;9.30;102309.00;;;;10398272;28;20949;-83
2024/02/03 00:25:44;;;;;;;11.17;7.23;;;;;9.30;102310.00;;;;10387769;28;20230;-83
2024/02/03 00:30:46;;;;;;;14.33;7.93;;;;;9.30;102303.00;;;;10386757;28;20229;-82
2024/02/03 00:35:47;;;;;;;10.33;6.80;;;;;9.30;102300.00;;;;10385101;28;20258;-83
2024/02/03 00:40:49;;;;;;;10.13;7.23;;;;;9.20;102303.00;;;;10414644;28;21654;-82
2024/02/03 00:45:50;;;;;;;8.13;6.03;;;;;9.20;102297.00;;;;10399988;28;20302;-83
2024/02/03 00:50:51;;;;;;;11.37;7.13;;;;;9.20;102298.00;;;;10395591;28;20224;-83
2024/02/03 00:55:52;;;;;;;11.13;7.03;;;;;9.20;102293.00;;;;10411036;28;20229;-83
2024/02/03 01:00:54;;;;;;;9.20;6.70;;;;;9.20;102298.00;;;;10377003;28;20267;-83
2024/02/03 01:05:55;;;;;;;9.60;7.33;;;;;9.20;102312.00;;;;10396890;28;20235;-82
2024/02/03 01:10:57;;;;;;;10.27;7.57;;;;;9.20;102305.00;;;;10401282;28;20328;-83
2024/02/03 01:15:58;;;;;;;9.83;7.10;;;;;9.20;102292.00;;;;10443233;28;20303;-82
2024/02/03 01:20:59;;;;;;;8.47;6.83;;;;;9.20;102301.00;;;;10501840;28;20217;-83
2024/02/03 01:26:01;;;;;;;14.57;8.43;;;;;9.20;102304.00;;;;10429150;28;21086;-83
2024/02/03 01:31:02;;;;;;;15.47;8.40;;;;;9.20;102297.00;;;;10405685;28;20343;-83
2024/02/03 01:36:03;;;;;;;12.70;8.43;;;;;9.20;102293.00;;;;10393753;28;20256;-82
2024/02/03 01:41:05;;;;;;;8.20;6.93;;;;;9.20;102291.00;;;;10394093;28;20806;-82
2024/02/03 01:46:06;;;;;;;11.20;8.47;;;;;9.20;102282.00;;;;10410897;28;20229;-82
2024/02/03 01:51:09;;;;;;;12.97;7.63;;;;;9.20;102285.00;;;;10392145;28;20224;-83
2024/02/03 01:56:11;;;;;;;11.33;8.47;;;;;9.30;102283.00;;;;10383721;28;20228;-82
2024/02/03 02:01:12;;;;;;;9.60;6.83;;;;;9.30;102289.00;;;;10395985;28;21063;-82
2024/02/03 02:06:13;;;;;;;12.43;7.73;;;;;9.30;102285.00;;;;10378792;28;20224;-83
2024/02/03 02:11:15;;;;;;;12.37;7.80;;;;;9.30;102289.00;;;;10394992;28;20267;-82
2024/02/03 02:16:16;;;;;;;10.13;8.43;;;;;9.30;102281.00;;;;10393996;28;20233;-82
2024/02/03 02:21:19;;;;;;;14.17;8.07;;;;;9.40;102280.00;;;;10394751;28;20228;-82
2024/02/03 02:26:20;;;;;;;11.37;8.07;;;;;9.30;102281.00;;;;10383921;28;20217;-82
2024/02/03 02:31:21;;;;;;;11.33;8.10;;;;;9.30;102263.00;;;;10397729;28;20727;-82
2024/02/03 02:36:22;;;;;;;10.80;8.43;;;;;9.30;102268.00;;;;10380547;28;20928;-82
2024/02/03 02:41:24;;;;;;;12.97;8.70;;;;;9.30;102262.00;;;;10374482;28;20267;-82
2024/02/03 02:46:27;;;;;;;26.07;16.80;;;;;9.30;102254.00;;;;10392703;28;20217;-82
2024/02/03 02:51:28;;;;;;;13.67;8.97;;;;;9.30;102243.00;;;;10394299;28;20344;-82
2024/02/03 02:56:29;;;;;;;11.33;9.60;;;;;9.40;102249.00;;;;10391450;28;21545;-82
2024/02/03 03:01:30;;;;;;;11.17;8.87;;;;;9.40;102250.00;;;;10416501;28;20232;-82
2024/02/03 03:06:32;;;;;;;12.67;8.97;;;;;9.40;102240.00;;;;10376585;28;21996;-81
2024/02/03 03:11:33;;;;;;;16.00;10.10;;;;;9.40;102242.00;;;;10383395;28;20228;-83
2024/02/03 03:16:34;;;;;;;10.90;8.60;;;;;9.40;102221.00;;;;10382505;28;21814;-83
2024/02/03 03:21:36;;;;;;;11.70;9.77;;;;;9.50;102213.00;;;;10396951;28;20293;-82
2024/02/03 03:26:42;;;;;;;16.17;9.00;;;;;9.50;102211.00;;;;10382716;28;20232;-82
2024/02/03 03:31:43;;;;;;;13.40;8.33;;;;;9.50;102212.00;;;;10392883;28;20260;-82
2024/02/03 03:36:44;;;;;;;12.80;8.57;;;;;9.50;102203.00;;;;10409090;28;20224;-83
2024/02/03 03:41:46;;;;;;;12.90;8.20;;;;;9.60;102204.00;;;;10399202;28;20330;-82
2024/02/03 03:46:47;;;;;;;10.93;8.63;;;;;9.50;102203.00;;;;10404645;28;20225;-83
2024/02/03 03:51:48;;;;;;;12.50;8.87;;;;;9.60;102223.00;;;;10383994;28;20278;-82
2024/02/03 03:56:49;;;;;;;13.80;8.43;;;;;9.50;102224.00;;;;10382265;28;20232;-83
2024/02/03 04:01:51;;;;;;;13.90;8.87;;;;;9.50;102222.00;;;;10388517;28;20233;-83
2024/02/03 04:06:52;;;;;;;12.57;8.07;;;;;9.50;102216.00;;;;10400826;28;20270;-82
2024/02/03 04:11:53;;;;;;;13.23;9.13;;;;;9.60;102225.00;;;;10383024;28;20229;-82
2024/02/03 04:16:54;;;;;;;15.80;9.50;;;;;9.60;102220.00;;;;10399565;28;21175;-83
2024/02/03 04:21:55;;;;;;;15.10;9.90;;;;;9.60;102220.00;;;;10390563;28;20229;-83
2024/02/03 04:26:57;;;;;;;12.70;9.20;;;;;9.60;102218.00;;;;10387046;28;20227;-83
2024/02/03 04:31:58;;;;;;;13.73;8.47;;;;;9.60;102226.00;;;;10450361;28;20212;-82
2024/02/03 04:36:59;;;;;;;21.67;8.90;;;;;9.60;102221.00;;;;10497011;28;20596;-82
2024/02/03 04:42:01;;;;;;;13.83;7.53;;;;;9.60;102228.00;;;;10417464;28;20842;-82
2024/02/03 04:47:03;;;;;;;16.23;8.53;;;;;9.60;102223.00;;;;10396806;28;21997;-82
2024/02/03 04:52:04;;;;;;;18.53;8.23;;;;;9.60;102209.00;;;;10401607;28;20990;-82
2024/02/03 04:57:06;;;;;;;17.30;7.53;;;;;9.60;102207.00;;;;10380164;28;20240;-82
2024/02/03 05:02:08;;;;;;;18.10;8.23;;;;;9.60;102192.00;;;;10385462;28;20237;-82
2024/02/03 05:07:09;;;;;;;13.73;7.80;;;;;9.60;102196.00;;;;10414179;28;20232;-82
2024/02/03 05:12:10;;;;;;;13.03;7.40;;;;;9.60;102197.00;;;;10435131;28;20229;-82
2024/02/03 05:17:12;;;;;;;12.97;6.67;;;;;9.60;102193.00;;;;10378307;28;20252;-82
2024/02/03 05:22:13;;;;;;;15.87;8.33;;;;;9.60;102183.00;;;;10384320;28;20229;-83
2024/02/03 05:27:14;;;;;;;13.13;7.83;;;;;9.70;102179.00;;;;10384532;28;20228;-82
2024/02/03 05:32:15;;;;;;;14.93;7.60;;;;;9.70;102176.00;;;;10400765;28;20221;-82
2024/02/03 05:37:16;;;;;;;13.03;8.10;;;;;9.80;102179.00;;;;10379607;28;20231;-82
2024/02/03 05:42:17;;;;;;;12.07;7.23;;;;;9.80;102182.00;;;;10397301;28;20259;-82
2024/02/03 05:47:23;;;;;;;14.90;7.90;;;;;9.80;102174.00;;;;10392591;28;20232;-83
2024/02/03 05:52:24;;;;;;;12.13;7.43;;;;;9.80;102183.00;;;;10392099;28;20334;-82
2024/02/03 05:57:25;;;;;;;12.33;6.80;;;;;9.80;102186.00;;;;10391807;28;20216;-82
2024/02/03 06:02:29;;;;;;;12.77;7.93;;;;;9.90;102186.00;;;;10410484;28;20229;-82
2024/02/03 06:07:30;;;;;;;17.47;7.37;;;;;9.80;102173.00;;;;10393487;28;20225;-82
2024/02/03 06:12:32;;;;;;;17.50;8.23;;;;;9.90;102182.00;;;;10385547;28;21463;-82
2024/02/03 06:17:33;;;;;;;16.00;8.27;;;;;9.80;102178.00;;;;10394859;28;20286;-82
2024/02/03 06:22:34;;;;;;;24.67;12.57;;;;;9.90;102187.00;;;;10385293;28;20231;-82
2024/02/03 06:27:35;;;;;;;19.40;8.30;;;;;9.80;102180.00;;;;10396407;28;20348;-82
2024/02/03 06:32:37;;;;;;;14.80;7.43;;;;;9.80;102177.00;;;;10401937;28;20223;-82
2024/02/03 06:37:38;;;;;;;14.27;8.80;;;;;9.80;102180.00;;;;10391695;28;20236;-83
2024/02/03 06:42:39;;;;;;;16.70;8.50;;;;;9.80;102173.00;;;;10370979;28;20235;-82
2024/02/03 06:47:41;;;;;;;18.30;7.83;;;;;9.90;102168.00;;;;10377219;28;20303;-82
2024/02/03 06:52:42;;;;;;;11.33;7.57;;;;;9.90;102155.00;;;;10379520;28;20228;-82
2024/02/03 06:57:43;;;;;;;12.23;7.83;;;;;9.90;102165.00;;;;10378924;28;20237;-84
2024/02/03 07:02:44;;;;;;;15.40;8.57;;;;;10.00;102174.00;;;;10375065;28;20225;-84
2024/02/03 07:07:46;;;;;;;15.63;8.30;;;;;10.00;102175.00;;;;10389085;28;20338;-84
2024/02/03 07:12:47;;;;;;;16.23;8.20;;;;;10.00;102184.00;;;;10382307;28;20246;-84
2024/02/03 07:17:48;;;;;;;20.00;8.50;;;;;10.00;102195.00;;;;10373475;28;20221;-84
2024/02/03 07:22:50;;;;;;;24.70;14.20;;;;;10.00;102197.00;;;;10356618;28;20224;-85
2024/02/03 07:27:51;;;;;;;24.33;10.97;;;;;10.10;102201.00;;;;10358949;28;21719;-84
2024/02/03 07:32:53;;;;;;;14.27;8.33;;;;;10.10;102203.00;;;;10370935;28;20225;-84
2024/02/03 07:37:54;;;;;;;15.23;9.07;;;;;10.10;102223.00;;;;10385954;28;20283;-84
2024/02/03 07:42:57;;;;;;;19.67;10.07;;;;;10.20;102221.00;;;;10403854;28;20228;-85
2024/02/03 07:47:58;;;;;;;19.30;9.23;;;;;10.20;102219.00;;;;10423287;28;20216;-85
2024/02/03 07:53:00;;;;;;;17.53;9.27;;;;;10.20;102227.00;;;;10504861;28;20270;-85
2024/02/03 07:58:01;;;;;;;21.47;9.57;;;;;10.30;102232.00;;;;10466961;28;20247;-86
2024/02/03 08:03:03;;;;;;;13.07;9.20;;;;;10.40;102248.00;;;;10399633;28;20221;-85
2024/02/03 08:08:05;;;;;;;18.07;9.20;;;;;10.40;102230.00;;;;10401444;28;20241;-81
2024/02/03 08:13:06;;;;;;;18.67;10.43;;;;;10.40;102250.00;;;;10380855;28;20225;-81
2024/02/03 08:18:07;;;;;;;22.50;12.20;;;;;10.40;102256.00;;;;10395227;28;20244;-83
2024/02/03 08:23:09;;;;;;;22.90;11.53;;;;;10.40;102245.00;;;;10380821;28;20264;-82
2024/02/03 08:28:10;;;;;;;26.33;11.50;;;;;10.40;102253.00;;;;10410225;28;20726;-82
2024/02/03 08:33:11;;;;;;;15.53;9.70;;;;;10.40;102254.00;;;;10377900;28;20236;-80
2024/02/03 08:38:15;;;;;;;17.83;9.47;;;;;10.50;102254.00;;;;10388655;28;20248;-81
2024/02/03 08:43:16;;;;;;;18.80;8.83;;;;;10.60;102254.00;;;;10375362;28;20236;-83
2024/02/03 08:48:17;;;;;;;20.83;9.90;;;;;10.70;102256.00;;;;10391339;28;21849;-82
2024/02/03 08:53:19;;;;;;;17.73;9.10;;;;;10.80;102257.00;;;;10363598;28;20231;-82
2024/02/03 08:58:20;;;;;;;15.97;9.10;;;;;11.00;102257.00;;;;10373449;28;20220;-82
2024/02/03 09:03:21;;;;;;;16.80;9.40;;;;;11.00;102260.00;;;;10407561;28;20233;-82
2024/02/03 09:08:23;;;;;;;25.83;9.13;;;;;11.10;102248.00;;;;10368498;28;20245;-80
2024/02/03 09:13:24;;;;;;;19.93;8.73;;;;;11.20;102248.00;;;;10384203;28;20259;-82
2024/02/03 09:18:25;;;;;;;22.07;7.33;;;;;11.30;102253.00;;;;10392648;28;20220;-82
2024/02/03 09:23:26;;;;;;;13.50;7.70;;;;;11.40;102258.00;;;;10378107;28;21562;-81
2024/02/03 09:28:28;;;;;;;13.83;7.43;;;;;11.60;102259.00;;;;10383965;28;20240;-82
2024/02/03 09:33:29;;;;;;;16.37;7.40;;;;;11.70;102275.00;;;;10388329;28;20383;-82
2024/02/03 09:38:30;;;;;;;19.00;7.20;;;;;11.50;102278.00;;;;10396480;28;20225;-82
2024/02/03 09:43:32;;;;;;;19.70;6.43;;;;;11.50;102273.00;;;;10396343;28;20260;-82
2024/02/03 09:48:33;;;;;;;10.60;6.43;;;;;11.40;102288.00;;;;10374982;28;20235;-82
2024/02/03 09:53:35;;;;;;;16.52;6.82;;;;;11.30;102281.00;;;;10381503;28;20281;-82
2024/02/03 09:58:37;;;;;;;13.68;6.15;;;;;11.30;102287.00;;;;10409825;28;20260;-81
2024/02/03 10:03:45;;;;;;;16.20;5.23;;;;;11.30;102296.00;;;;10383178;28;20236;-81
2024/02/03 10:08:51;;;;;;;15.77;6.37;;;;;11.50;102301.00;;;;10399729;28;20227;-81
2024/02/03 10:14:02;;;;;;;18.00;6.07;;;;;11.50;102306.00;;;;10413473;28;20221;-82
2024/02/03 10:19:03;;;;;;;15.45;6.10;;;;;11.50;102315.00;;;;10376495;28;20272;-81
2024/02/03 10:24:05;;;;;;;17.17;5.68;;;;;11.70;102303.00;;;;10380656;28;20311;-84
2024/02/03 10:29:15;;;;;;;18.37;6.40;;;;;11.60;102314.00;;;;10379732;28;20237;-82
2024/02/03 10:34:17;;;;;;;11.10;5.50;;;;;11.40;102294.00;;;;10400703;28;20351;-83
2024/02/03 10:39:19;;;;;;;13.80;5.57;;;;;11.30;102271.00;;;;10390715;28;20972;-83
2024/02/03 10:44:26;;;;;;;12.98;6.28;;;;;11.40;102266.00;;;;10391756;28;20255;-83
2024/02/03 10:49:33;;;;;;;14.48;5.85;;;;;11.40;102255.00;;;;10378449;28;20236;-85
2024/02/03 10:54:36;;;;;;;11.33;5.30;;;;;11.30;102259.00;;;;10386072;28;20359;-85
2024/02/03 10:59:38;;;;;;;14.80;6.73;;;;;11.20;102256.00;;;;10410592;28;20252;-85
2024/02/03 11:04:39;;;;;;;17.87;6.23;;;;;11.10;102250.00;;;;10487808;28;20217;-84
2024/02/03 11:09:41;;;;;;;8.13;5.37;;;;;11.20;102257.00;;;;10474032;28;21405;-84
2024/02/03 11:14:42;;;;;;;14.27;6.63;;;;;11.40;102258.00;;;;10395731;28;20347;-84
2024/02/03 11:19:45;;;;;;;14.93;7.23;;;;;11.50;102254.00;;;;10382674;28;20228;-84
2024/02/03 11:24:47;;;;;;;8.83;6.17;;;;;11.40;102237.00;;;;10392319;28;20229;-84
2024/02/03 11:29:48;;;;;;;12.93;5.95;;;;;11.70;102216.00;;;;10391817;28;20319;-84
2024/02/03 11:34:49;;;;;;;17.60;7.45;;;;;11.70;102215.00;;;;10412549;28;20277;-84
2024/02/03 11:39:51;;;;;;;13.87;6.60;;;;;11.80;102232.00;;;;10381413;28;20233;-84
2024/02/03 11:44:56;;;;;;;14.23;8.00;;;;;11.90;102221.00;;;;10389803;28;20229;-84
2024/02/03 11:49:58;;;;;;;10.63;7.05;;;;;11.90;102213.00;;;;10376355;28;21818;-84
2024/02/03 11:54:59;;;;;;;15.67;6.90;;;;;12.00;102217.00;;;;10409224;28;20220;-83
2024/02/03 12:00:05;;;;;;;16.65;7.95;;;;;12.10;102203.00;;;;10399270;28;20239;-85
2024/02/03 12:05:07;;;;;;;17.95;7.97;;;;;12.00;102189.00;;;;10395735;28;20289;-83
2024/02/03 12:10:12;;;;;;;18.48;8.18;;;;;12.00;102178.00;;;;10380164;28;20313;-84
2024/02/03 12:15:14;;;;;;;14.43;7.37;;;;;11.80;102187.00;;;;10397864;28;20270;-84
2024/02/03 12:20:24;;;;;;;15.18;7.65;;;;;11.70;102189.00;;;;10402612;28;20242;-84
2024/02/03 12:25:27;;;;;;;14.13;7.30;;;;;11.70;102182.00;;;;10388444;28;20336;-85
2024/02/03 12:30:35;;;;;;;15.57;7.90;;;;;11.90;102190.00;;;;10413250;28;20286;-84
2024/02/03 12:35:37;;;;;;;11.73;7.93;;;;;11.70;102197.00;;;;10398022;28;20232;-84
2024/02/03 12:40:38;;;;;;;13.77;7.97;;;;;11.60;102191.00;;;;10396173;28;21858;-84
2024/02/03 12:45:39;;;;;;;12.33;8.53;;;;;11.60;102195.00;;;;10418090;28;20255;-82
2024/02/03 12:50:42;;;;;;;14.57;7.60;;;;;11.50;102184.00;;;;10418823;28;20293;-81
2024/02/03 12:55:43;;;;;;;16.15;8.10;;;;;11.50;102187.00;;;;10377530;28;21816;-81
2024/02/03 13:00:45;;;;;;;21.13;8.23;;;;;11.50;102179.00;;;;10400838;28;21880;-81
2024/02/03 13:05:48;;;;;;;16.40;7.67;;;;;11.50;102186.00;;;;10392507;28;20241;-82
2024/02/03 13:10:49;;;;;;;12.00;7.50;;;;;11.60;102173.00;;;;10412287;28;20430;-81
2024/02/03 13:15:50;;;;;;;15.20;7.33;;;;;11.50;102180.00;;;;10376736;28;20269;-79
2024/02/03 13:20:52;;;;;;;15.43;7.40;;;;;11.60;102173.00;;;;10401391;28;20229;-81
2024/02/03 13:25:53;;;;;;;15.67;6.90;;;;;11.60;102163.00;;;;10384098;28;20229;-81
2024/02/03 13:30:55;;;;;;;16.00;7.17;;;;;11.70;102163.00;;;;10394416;28;20232;-82
2024/02/03 13:35:56;;;;;;;13.97;7.13;;;;;11.70;102168.00;;;;10393353;28;20772;-81
2024/02/03 13:40:57;;;;;;;18.50;7.68;;;;;11.70;102166.00;;;;10386022;28;20252;-81
2024/02/03 13:45:59;;;;;;;19.83;7.43;;;;;11.90;102170.00;;;;10382968;28;20229;-82
2024/02/03 13:51:00;;;;;;;18.70;6.90;;;;;11.70;102156.00;;;;10386364;28;20232;-81
2024/02/03 13:56:04;;;;;;;28.37;8.30;;;;;11.70;102155.00;;;;10403319;28;20229;-81
2024/02/03 14:01:06;;;;;;;17.38;7.18;;;;;11.60;102146.00;;;;10419335;28;20920;-79
2024/02/03 14:06:07;;;;;;;18.30;7.63;;;;;11.50;102153.00;;;;10475357;28;20232;-81
2024/02/03 14:11:08;;;;;;;14.13;7.00;;;;;11.50;102145.00;;;;10420583;28;20857;-80
2024/02/03 14:16:14;;;;;;;15.43;7.40;;;;;11.40;102147.00;;;;10374146;28;20231;-81
2024/02/03 14:21:16;;;;;;;19.67;7.40;;;;;11.40;102136.00;;;;10379956;28;20291;-81
2024/02/03 14:26:17;;;;;;;21.17;7.70;;;;;11.30;102144.00;;;;10413421;28;20319;-80
2024/02/03 14:31:19;;;;;;;17.23;8.17;;;;;11.20;102154.00;;;;10397975;28;20945;-81
2024/02/03 14:36:20;;;;;;;14.57;7.53;;;;;11.10;102155.00;;;;10408611;28;20347;-80
2024/02/03 14:41:21;;;;;;;14.07;8.10;;;;;11.10;102149.00;;;;10394036;28;20359;-81
2024/02/03 14:46:22;;;;;;;19.50;7.63;;;;;11.10;102148.00;;;;10408270;28;20229;-80
2024/02/03 14:51:23;;;;;;;16.27;7.57;;;;;11.00;102161.00;;;;10381157;28;20240;-80
2024/02/03 14:56:25;;;;;;;15.47;8.13;;;;;10.90;102158.00;;;;10411505;28;20267;-80
2024/02/03 15:01:26;;;;;;;16.93;8.50;;;;;10.80;102158.00;;;;10394043;28;20360;-80
2024/02/03 15:06:28;;;;;;;16.53;7.87;;;;;10.80;102161.00;;;;10356685;28;20225;-81
2024/02/03 15:11:30;;;;;;;16.17;8.30;;;;;10.80;102168.00;;;;10355696;28;20278;-82
2024/02/03 15:16:31;;;;;;;20.53;7.93;;;;;10.80;102156.00;;;;10336700;28;20228;-79
2024/02/03 15:21:35;;;;;;;14.97;8.00;;;;;10.70;102166.00;;;;10373867;28;20293;-82
2024/02/03 15:26:36;;;;;;;15.60;8.20;;;;;10.70;102168.00;;;;10351907;28;21165;-83
2024/02/03 15:31:37;;;;;;;15.80;8.57;;;;;10.60;102168.00;;;;10356834;28;20672;-82
2024/02/03 15:36:38;;;;;;;13.80;8.37;;;;;10.60;102163.00;;;;10354410;28;20241;-83
2024/02/03 15:41:40;;;;;;;22.37;9.83;;;;;10.50;102163.00;;;;10335969;28;20269;-83
2024/02/03 15:46:41;;;;;;;17.00;9.83;;;;;10.40;102161.00;;;;10344294;28;20221;-81
2024/02/03 15:51:47;;;;;;;23.87;11.73;;;;;10.40;102169.00;;;;10375811;28;20378;-83
2024/02/03 15:56:49;;;;;;;14.07;8.23;;;;;10.40;102170.00;;;;10341881;28;20976;-82
2024/02/03 16:01:50;;;;;;;18.30;8.53;;;;;10.30;102166.00;;;;10363021;28;20233;-83
2024/02/03 16:06:51;;;;;;;16.30;8.27;;;;;10.30;102169.00;;;;10363265;28;20218;-83
2024/02/03 16:11:53;;;;;;;16.20;9.13;;;;;10.30;102166.00;;;;10344716;28;20229;-83
2024/02/03 16:16:55;;;;;;;17.50;10.70;;;;;10.30;102156.00;;;;10364029;28;20224;-85
2024/02/03 16:21:56;;;;;;;17.27;9.50;;;;;10.30;102153.00;;;;10348902;28;20352;-86
2024/02/03 16:27:00;;;;;;;17.10;10.07;;;;;10.20;102155.00;;;;10362782;28;20399;-86
2024/02/03 16:32:02;;;;;;;16.53;9.60;;;;;10.20;102150.00;;;;10354028;28;20236;-85
2024/02/03 16:37:03;;;;;;;22.23;10.50;;;;;10.10;102141.00;;;;10361210;28;20279;-85
2024/02/03 16:42:05;;;;;;;17.87;10.43;;;;;10.10;102138.00;;;;10375303;28;20232;-86
2024/02/03 16:47:06;;;;;;;13.57;10.23;;;;;10.10;102137.00;;;;10337499;28;20279;-85
2024/02/03 16:52:07;;;;;;;17.27;10.37;;;;;10.10;102150.00;;;;10369333;28;20228;-86
2024/02/03 16:57:09;;;;;;;19.03;11.40;;;;;10.20;102138.00;;;;10470154;28;20257;-85
2024/02/03 17:02:10;;;;;;;16.67;9.73;;;;;10.20;102150.00;;;;10421268;28;20256;-86
2024/02/03 17:07:12;;;;;;;18.97;10.13;;;;;10.20;102156.00;;;;10372523;28;20237;-85
2024/02/03 17:12:13;;;;;;;18.27;10.40;;;;;10.20;102158.00;;;;10355451;28;20233;-86
2024/02/03 17:17:14;;;;;;;18.87;10.47;;;;;10.20;102148.00;;;;10362384;28;20237;-86
2024/02/03 17:22:15;;;;;;;18.63;11.47;;;;;10.20;102157.00;;;;10342449;28;20236;-87
2024/02/03 17:27:17;;;;;;;20.90;10.97;;;;;10.30;102152.00;;;;10361354;28;20272;-82
2024/02/03 17:32:21;;;;;;;17.80;11.70;;;;;10.30;102151.00;;;;10358876;28;20225;-82
2024/02/03 17:37:22;;;;;;;22.40;13.17;;;;;10.20;102159.00;;;;10343673;28;20222;-81
2024/02/03 17:42:24;;;;;;;21.60;12.50;;;;;10.30;102168.00;;;;10346119;28;20221;-81
2024/02/03 17:47:27;;;;;;;21.10;12.73;;;;;10.30;102159.00;;;;10342896;28;20288;-82
2024/02/03 17:52:28;;;;;;;27.03;12.60;;;;;10.30;102148.00;;;;10356897;28;21179;-81
2024/02/03 17:57:30;;;;;;;25.80;11.33;;;;;10.20;102156.00;;;;10361965;28;20225;-82
2024/02/03 18:02:31;;;;;;;21.30;11.20;;;;;10.10;102150.00;;;;10372065;28;20237;-81
2024/02/03 18:07:34;;;;;;;27.40;11.77;;;;;10.10;102157.00;;;;10363009;28;20248;-82
2024/02/03 18:12:35;;;;;;;22.27;12.50;;;;;10.20;102159.00;;;;10376381;28;20271;-82
2024/02/03 18:17:36;;;;;;;21.13;13.07;;;;;10.20;102166.00;;;;10338400;28;20255;-82
2024/02/03 18:22:38;;;;;;;21.63;11.47;;;;;10.20;102167.00;;;;10378563;28;20240;-81
2024/02/03 18:27:39;;;;;;;22.10;12.63;;;;;10.20;102183.00;;;;10378475;28;20225;-81
2024/02/03 18:32:40;;;;;;;20.87;13.27;;;;;10.20;102177.00;;;;10349065;28;20222;-80
2024/02/03 18:37:41;;;;;;;25.33;12.90;;;;;10.20;102168.00;;;;10370675;28;20222;-81
2024/02/03 18:42:43;;;;;;;21.63;13.00;;;;;10.20;102149.00;;;;10361012;28;20460;-82
2024/02/03 18:47:45;;;;;;;26.03;11.73;;;;;10.20;102154.00;;;;10369464;28;21122;-83
2024/02/03 18:52:47;;;;;;;21.03;12.10;;;;;10.20;102144.00;;;;10358882;28;20280;-81
2024/02/03 18:57:48;;;;;;;20.23;11.87;;;;;10.20;102128.00;;;;10356776;28;20333;-82
2024/02/03 19:02:49;;;;;;;15.83;10.50;;;;;10.20;102130.00;;;;10356867;28;21925;-80
2024/02/03 19:07:54;;;;;;;22.03;10.40;;;;;10.10;102126.00;;;;10347125;28;21897;-80
2024/02/03 19:12:55;;;;;;;17.70;10.60;;;;;10.10;102139.00;;;;10343762;28;20849;-82
2024/02/03 19:17:56;;;;;;;15.50;10.60;;;;;10.10;102118.00;;;;10343535;28;20225;-82
2024/02/03 19:22:58;;;;;;;14.30;10.50;;;;;10.20;102109.00;;;;10340510;28;20233;-80
2024/02/03 19:27:59;;;;;;;20.20;9.43;;;;;10.20;102115.00;;;;10350885;28;20231;-83
2024/02/03 19:33:01;;;;;;;17.23;10.60;;;;;10.20;102118.00;;;;10364275;28;20312;-83
2024/02/03 19:38:02;;;;;;;13.20;9.67;;;;;10.30;102133.00;;;;10347531;28;20263;-82
2024/02/03 19:43:03;;;;;;;17.60;9.60;;;;;10.20;102122.00;;;;10357357;28;20233;-81
2024/02/03 19:48:05;;;;;;;16.77;11.03;;;;;10.30;102141.00;;;;10415817;28;20216;-83
2024/02/03 19:53:07;;;;;;;15.60;11.27;;;;;10.30;102139.00;;;;10463793;28;20226;-82
2024/02/03 19:58:08;;;;;;;14.17;11.47;;;;;10.30;102147.00;;;;10399249;28;20236;-82
2024/02/03 20:03:09;;;;;;;16.50;11.00;;;;;10.30;102149.00;;;;10353157;28;20232;-84
2024/02/03 20:08:11;;;;;;;15.00;10.80;;;;;10.30;102153.00;;;;10342679;28;20355;-83
2024/02/03 20:13:12;;;;;;;13.70;11.13;;;;;10.30;102155.00;;;;10354595;28;20233;-83
2024/02/03 20:18:14;;;;;;;15.47;11.13;;;;;10.30;102163.00;;;;10355362;28;20226;-84
2024/02/03 20:23:15;;;;;;;16.60;11.77;;;;;10.20;102164.00;;;;10358286;28;20299;-84
2024/02/03 20:28:18;;;;;;;16.00;11.30;;;;;10.20;102164.00;;;;10340852;28;20221;-84
2024/02/03 20:33:20;;;;;;;16.07;11.97;;;;;10.20;102170.00;;;;10352727;28;20233;-84
2024/02/03 20:38:22;;;;;;;15.27;11.73;;;;;10.20;102163.00;;;;10342913;28;21149;-84
2024/02/03 20:43:24;;;;;;;11.97;10.23;;;;;10.10;102159.00;;;;10374240;28;20344;-83
2024/02/03 20:48:25;;;;;;;15.30;12.20;;;;;10.10;102156.00;;;;10342595;28;20234;-83
2024/02/03 20:53:27;;;;;;;15.63;12.43;;;;;10.00;102152.00;;;;10360384;28;20221;-82
2024/02/03 20:58:28;;;;;;;19.63;13.00;;;;;10.00;102148.00;;;;10351256;28;20344;-82
2024/02/03 21:03:31;;;;;;;17.60;12.77;;;;;9.90;102158.00;;;;10363794;28;20941;-81
2024/02/03 21:08:32;;;;;;;18.13;11.90;;;;;9.90;102138.00;;;;10354242;28;20235;-82
2024/02/03 21:13:33;;;;;;;19.03;12.20;;;;;9.90;102149.00;;;;10358472;28;20224;-81
2024/02/03 21:18:36;;;;;;;18.53;12.07;;;;;9.90;102145.00;;;;10375461;28;20239;-81
2024/02/03 21:23:37;;;;;;;21.87;13.97;;;;;9.90;102136.00;;;;10377993;28;20237;-80
2024/02/03 21:28:38;;;;;;;20.87;13.50;;;;;9.90;102118.00;;;;10356506;28;20300;-83
2024/02/03 21:33:40;;;;;;;18.43;13.57;;;;;9.90;102112.00;;;;10353142;28;20291;-83
2024/02/03 21:38:41;;;;;;;20.70;12.40;;;;;9.90;102103.00;;;;10364831;28;21176;-82
2024/02/03 21:43:42;;;;;;;21.40;14.00;;;;;9.90;102083.00;;;;10371225;28;20264;-82
2024/02/03 21:48:44;;;;;;;16.83;12.13;;;;;9.80;102072.00;;;;10350443;28;20229;-83
2024/02/03 21:53:45;;;;;;;20.17;14.60;;;;;9.80;102074.00;;;;10338269;28;21012;-83
2024/02/03 21:58:47;;;;;;;22.07;13.80;;;;;9.80;102077.00;;;;10362398;28;21959;-82
2024/02/03 22:03:51;;;;;;;18.50;13.57;;;;;9.90;102076.00;;;;10342180;28;20231;-81
2024/02/03 22:08:54;;;;;;;17.13;13.43;;;;;9.80;102069.00;;;;10345272;28;20221;-81
2024/02/03 22:13:55;;;;;;;22.43;13.80;;;;;9.80;102056.00;;;;10354100;28;20257;-81
2024/02/03 22:18:56;;;;;;;21.23;13.00;;;;;9.80;102057.00;;;;10370594;28;21659;-82
2024/02/03 22:23:57;;;;;;;19.53;13.80;;;;;9.80;102053.00;;;;10329907;28;21207;-82
2024/02/03 22:28:58;;;;;;;19.07;13.43;;;;;9.80;102055.00;;;;10362184;28;20232;-80
2024/02/03 22:34:00;;;;;;;19.27;13.43;;;;;9.80;102055.00;;;;10387620;28;20296;-78
2024/02/03 22:39:01;;;;;;;21.87;14.30;;;;;9.80;102044.00;;;;10383600;28;20343;-80
2024/02/03 22:44:03;;;;;;;18.33;13.30;;;;;9.80;102057.00;;;;10347375;28;21182;-80
2024/02/03 22:49:04;;;;;;;20.83;14.07;;;;;9.80;102033.00;;;;10359212;28;20767;-79
2024/02/03 22:54:06;;;;;;;21.17;13.90;;;;;9.80;102035.00;;;;10355413;28;20237;-81
2024/02/03 22:59:07;;;;;;;18.73;13.80;;;;;9.80;102043.00;;;;10356521;28;20230;-81
2024/02/03 23:04:12;;;;;;;25.50;13.93;;;;;9.80;102030.00;;;;10369494;28;20414;-82
2024/02/03 23:09:15;;;;;;;18.93;14.47;;;;;9.80;102035.00;;;;10338321;28;20243;-82
2024/02/03 23:14:16;;;;;;;21.83;14.53;;;;;9.80;102029.00;;;;10355216;28;20347;-87
2024/02/03 23:19:17;;;;;;;20.97;14.30;;;;;9.80;102026.00;;;;10373542;28;20221;-85
2024/02/03 23:24:19;;;;;;;21.13;13.83;;;;;9.80;102024.00;;;;10356662;28;20243;-84
2024/02/03 23:29:20;;;;;;;19.57;13.43;;;;;9.80;102019.00;;;;10339076;28;20249;-88
2024/02/03 23:34:22;;;;;;;23.33;13.60;;;;;9.80;102027.00;;;;10372068;28;20221;-87
2024/02/03 23:39:23;;;;;;;18.73;12.37;;;;;9.80;102022.00;;;;10344182;28;20274;-86
2024/02/03 23:44:24;;;;;;;18.37;11.83;;;;;9.80;102032.00;;;;10355020;28;22026;-85
2024/02/03 23:49:26;;;;;;;17.97;12.00;;;;;9.80;102031.00;;;;10361983;28;20940;-84
2024/02/03 23:54:27;;;;;;;15.53;11.17;;;;;9.80;102030.00;;;;10361665;28;20280;-86
2024/02/03 23:59:29;;;;;;;18.60;10.73;;;;;9.80;102033.00;;;;10328889;28;20226;-86
